Terminal Aerodrome Forecast
Issued by NWS

Home | Current Version | Previous Version | Graphics & Text | Print | Product List | Glossary On
Versions: 1 2 3 4 5 6 7 8 9 10 11 12 13 14 15 16 17 18 19
000
FTUS43 KICT 241142
TAFSLN
TAF
KSLN 241142Z 2412/2512 16015KT 6SM BR SCT006 OVC009
     FM241300 16015KT 4SM -DZ BR SCT003 OVC005
     FM241700 16015KT 6SM BR SCT009 BKN015
     FM242100 14013KT P6SM VCTS SCT015 BKN030CB
     FM250400 26010KT P6SM BKN100=

USA.gov is the U.S. government's official web portal to all federal, state and local government web resources and services.